Time;durP1;ratioP1;P1;durP2;ratioP2;P2;SDS_P1;SDS_P2;PMS_P1;PMS_P2;Temp;Humidity;BMP_temperature;BMP_pressure;BME280_temperature;BME280_humidity;BME280_pressure;Samples;Min_cycle;Max_cycle;Signal;HPM_P1;HPM_P2
2023/12/24 09:12:43;;;;;;;1.63;0.77;;;10.80;99.90;;;;;;3272609;27;20259;-79
2023/12/24 09:15:10;;;;;;;0.77;0.67;;;10.90;99.90;;;;;;4894310;29;20309;-79
2023/12/24 09:17:37;;;;;;;1.30;0.70;;;11.00;99.90;;;;;;4881528;29;20231;-78
2023/12/24 09:20:05;;;;;;;3.03;0.60;;;10.90;99.90;;;;;;4878075;29;20244;-78
2023/12/24 09:22:32;;;;;;;1.10;0.63;;;10.90;99.90;;;;;;4868363;29;20249;-78
2023/12/24 09:24:59;;;;;;;2.50;1.70;;;10.90;99.90;;;;;;4878015;29;20214;-77
2023/12/24 09:27:26;;;;;;;2.13;0.80;;;10.90;99.90;;;;;;4881217;29;20294;-77
2023/12/24 09:29:55;;;;;;;1.87;0.70;;;10.90;99.90;;;;;;4892506;29;20573;-78
2023/12/24 09:32:22;;;;;;;1.40;0.80;;;11.10;99.90;;;;;;4899996;29;20670;-79
2023/12/24 09:34:49;;;;;;;1.23;0.70;;;11.20;99.90;;;;;;4899749;29;20207;-78
2023/12/24 09:37:16;;;;;;;0.67;0.40;;;11.10;99.90;;;;;;4899780;29;20254;-76
2023/12/24 09:39:43;;;;;;;3.70;0.80;;;11.20;99.90;;;;;;4893173;29;20235;-78
2023/12/24 09:42:10;;;;;;;1.63;0.83;;;11.10;99.90;;;;;;4881372;29;20678;-78
2023/12/24 09:44:37;;;;;;;3.30;0.73;;;11.20;99.90;;;;;;4889897;29;20558;-78
2023/12/24 09:47:06;;;;;;;3.10;1.00;;;11.20;99.90;;;;;;4899402;29;20236;-77
2023/12/24 09:49:33;;;;;;;1.07;0.70;;;11.20;99.90;;;;;;4899834;29;20566;-78
2023/12/24 09:52:01;;;;;;;0.83;0.60;;;11.20;99.90;;;;;;4899783;29;20550;-76
2023/12/24 09:54:28;;;;;;;0.90;0.77;;;11.20;99.90;;;;;;4899963;29;20206;-77
2023/12/24 09:56:56;;;;;;;1.87;1.00;;;11.20;99.90;;;;;;4899864;29;20211;-77
2023/12/24 09:59:24;;;;;;;1.90;1.10;;;11.10;99.90;;;;;;4900162;29;20210;-77
2023/12/24 10:01:51;;;;;;;0.97;0.73;;;11.20;99.90;;;;;;4899816;29;20246;-76
2023/12/24 10:04:20;;;;;;;3.10;0.90;;;11.20;99.90;;;;;;4894683;29;20651;-77
2023/12/24 10:06:54;;;;;;;1.13;0.70;;;11.20;99.90;;;;;;4881167;29;20242;-77
2023/12/24 10:09:22;;;;;;;2.27;0.90;;;11.20;99.90;;;;;;4896705;29;20231;-77
2023/12/24 10:12:04;;;;;;;2.83;1.13;;;11.30;99.90;;;;;;4919887;29;20222;-77
2023/12/24 10:14:32;;;;;;;1.50;0.90;;;11.40;99.90;;;;;;4911277;29;20262;-77
2023/12/24 10:17:00;;;;;;;1.20;0.70;;;11.30;99.90;;;;;;4899881;29;20266;-77
2023/12/24 10:19:29;;;;;;;2.07;0.90;;;11.20;99.90;;;;;;4899476;29;20214;-77
2023/12/24 10:22:01;;;;;;;2.40;1.13;;;11.20;99.90;;;;;;4904974;29;20238;-78
2023/12/24 10:24:29;;;;;;;1.20;0.70;;;11.20;99.90;;;;;;4905187;29;20220;-77
2023/12/24 10:27:15;;;;;;;2.70;0.90;;;11.20;99.90;;;;;;4910121;29;20235;-77
2023/12/24 10:29:43;;;;;;;1.13;0.80;;;11.20;99.90;;;;;;4905067;29;20221;-78
2023/12/24 10:32:11;;;;;;;1.40;0.90;;;11.20;99.90;;;;;;4900217;29;20662;-79
2023/12/24 10:34:40;;;;;;;2.33;1.00;;;11.20;99.90;;;;;;4886892;29;20207;-78
2023/12/24 10:37:21;;;;;;;1.33;0.80;;;11.30;99.90;;;;;;4879710;29;20662;-77
2023/12/24 10:39:49;;;;;;;1.43;0.73;;;11.20;99.90;;;;;;4880597;29;20302;-77
2023/12/24 10:42:17;;;;;;;1.77;1.10;;;11.30;99.90;;;;;;4880033;29;20243;-77
2023/12/24 10:44:44;;;;;;;3.40;0.73;;;11.30;99.90;;;;;;4880231;29;20211;-77
2023/12/24 10:47:11;;;;;;;2.90;1.47;;;11.30;99.90;;;;;;4879883;29;20235;-77
2023/12/24 10:49:40;;;;;;;2.27;1.10;;;11.30;99.90;;;;;;4879992;29;20211;-76
2023/12/24 10:52:07;;;;;;;3.90;0.80;;;11.30;99.90;;;;;;4879837;29;20211;-77
2023/12/24 10:54:35;;;;;;;1.47;1.00;;;11.30;99.90;;;;;;4879901;29;20254;-77
2023/12/24 10:57:17;;;;;;;1.53;0.80;;;11.30;99.90;;;;;;4880066;29;20214;-76
2023/12/24 11:00:06;;;;;;;1.83;1.00;;;11.20;99.90;;;;;;4880017;29;20213;-77
2023/12/24 11:02:35;;;;;;;2.43;1.00;;;11.10;99.90;;;;;;4879716;29;20249;-77
2023/12/24 11:05:05;;;;;;;2.50;1.50;;;11.10;99.90;;;;;;4879699;29;20666;-77
2023/12/24 11:07:52;;;;;;;2.80;1.40;;;11.10;99.90;;;;;;4879660;29;20231;-78
2023/12/24 11:10:38;;;;;;;2.53;0.90;;;11.10;99.90;;;;;;4879611;29;20266;-78
2023/12/24 11:13:09;;;;;;;3.03;0.90;;;11.10;99.90;;;;;;4879090;29;20250;-78
2023/12/24 11:15:44;;;;;;;3.00;1.00;;;11.00;99.90;;;;;;4879352;29;20623;-78
2023/12/24 11:18:12;;;;;;;1.10;0.60;;;11.00;99.90;;;;;;4879716;29;20288;-77
2023/12/24 11:20:43;;;;;;;1.03;0.57;;;11.00;99.90;;;;;;4879643;29;20347;-77
2023/12/24 11:23:16;;;;;;;0.90;0.67;;;11.00;99.90;;;;;;4879449;29;20207;-77
2023/12/24 11:25:44;;;;;;;2.00;0.70;;;10.90;99.90;;;;;;4879435;29;20215;-77
2023/12/24 11:28:12;;;;;;;0.60;0.47;;;10.90;99.90;;;;;;4879365;29;20227;-78
2023/12/24 11:31:05;;;;;;;0.80;0.67;;;10.90;99.90;;;;;;4879524;29;20342;-77
2023/12/24 11:33:54;;;;;;;0.80;0.50;;;10.90;99.90;;;;;;4879795;29;20583;-77
2023/12/24 11:36:26;;;;;;;1.90;0.80;;;10.80;99.90;;;;;;4877993;29;20247;-77
2023/12/24 11:38:57;;;;;;;2.70;0.67;;;10.90;99.90;;;;;;4879637;29;20242;-77
2023/12/24 11:41:25;;;;;;;1.70;0.83;;;11.00;99.90;;;;;;4879278;29;20238;-78
2023/12/24 11:43:54;;;;;;;0.80;0.50;;;11.00;99.90;;;;;;4879341;29;20246;-76
2023/12/24 11:46:22;;;;;;;1.30;0.60;;;10.90;99.90;;;;;;4879357;29;20294;-77
2023/12/24 11:48:49;;;;;;;1.40;0.80;;;11.00;99.90;;;;;;4879567;29;20234;-77
2023/12/24 11:51:21;;;;;;;1.30;0.87;;;11.00;99.90;;;;;;4879574;29;20218;-77
2023/12/24 11:53:50;;;;;;;1.50;0.57;;;11.00;99.90;;;;;;4879519;29;20211;-78
2023/12/24 11:56:20;;;;;;;1.13;0.83;;;11.00;99.90;;;;;;4879055;29;20221;-77
2023/12/24 11:58:59;;;;;;;1.63;0.80;;;11.00;99.90;;;;;;4878897;29;20232;-78
2023/12/24 12:01:28;;;;;;;0.67;0.60;;;11.10;99.90;;;;;;4879052;29;20241;-77
2023/12/24 12:03:57;;;;;;;3.60;1.23;;;11.20;99.90;;;;;;4879051;29;20267;-77
2023/12/24 12:06:25;;;;;;;2.70;1.20;;;11.20;99.90;;;;;;4879044;29;20246;-77
2023/12/24 12:08:53;;;;;;;1.50;1.13;;;11.20;99.90;;;;;;4879162;29;20733;-80
2023/12/24 12:11:23;;;;;;;2.20;0.83;;;11.20;99.90;;;;;;4879156;29;20218;-77
2023/12/24 12:13:51;;;;;;;6.13;2.90;;;11.20;99.90;;;;;;4879287;29;20354;-77
2023/12/24 12:16:19;;;;;;;3.07;1.13;;;11.20;99.90;;;;;;4880130;29;20310;-77
2023/12/24 12:18:46;;;;;;;2.40;1.20;;;11.20;99.90;;;;;;4879069;29;20706;-77
2023/12/24 12:21:14;;;;;;;1.73;0.90;;;11.20;99.90;;;;;;4879013;29;20234;-79
2023/12/24 12:23:43;;;;;;;2.07;1.10;;;11.20;99.90;;;;;;4879315;29;20207;-77
2023/12/24 12:26:12;;;;;;;1.57;0.90;;;11.20;99.90;;;;;;4879032;29;20215;-77
2023/12/24 12:28:40;;;;;;;1.40;1.20;;;11.30;99.90;;;;;;4880995;29;20231;-77
2023/12/24 12:31:08;;;;;;;3.50;1.30;;;11.40;99.90;;;;;;4881625;29;20215;-77
2023/12/24 12:33:41;;;;;;;1.73;1.30;;;11.40;99.90;;;;;;4882446;29;20211;-77
2023/12/24 12:36:09;;;;;;;1.60;1.20;;;11.50;99.90;;;;;;4882511;29;20217;-76
2023/12/24 12:38:37;;;;;;;2.03;1.40;;;11.50;99.90;;;;;;4882195;29;20310;-77
2023/12/24 12:41:05;;;;;;;2.10;1.33;;;11.50;99.90;;;;;;4882521;29;20266;-77
2023/12/24 12:43:34;;;;;;;1.80;1.33;;;11.60;99.90;;;;;;4879645;29;20219;-74
2023/12/24 20:50:43;;;;;;;2.83;0.83;;;11.90;99.90;;;;;;4877904;29;20593;-73
2023/12/24 20:53:09;;;;;;;1.67;0.90;;;11.90;99.90;;;;;;4881646;29;20629;-74
2023/12/24 20:55:35;;;;;;;3.70;1.20;;;11.80;99.90;;;;;;4878445;29;20322;-74
2023/12/24 20:58:03;;;;;;;5.50;0.70;;;11.90;99.90;;;;;;4878442;29;20302;-74
2023/12/24 21:00:30;;;;;;;2.97;0.70;;;11.90;99.90;;;;;;4881087;29;20591;-74
2023/12/24 21:02:56;;;;;;;6.60;1.00;;;11.90;99.90;;;;;;4881965;29;20266;-73
2023/12/24 21:05:23;;;;;;;2.73;1.03;;;11.90;99.90;;;;;;4881497;29;20275;-74
2023/12/24 21:07:52;;;;;;;2.87;0.63;;;11.90;99.90;;;;;;4881830;29;20659;-73
2023/12/24 21:10:19;;;;;;;3.47;0.83;;;11.90;99.90;;;;;;4869532;29;20265;-74
2023/12/24 21:12:45;;;;;;;2.03;0.70;;;11.90;99.90;;;;;;4881427;29;20275;-74
2023/12/24 21:15:12;;;;;;;0.97;0.60;;;11.90;99.90;;;;;;4881404;29;20270;-74
2023/12/24 21:17:41;;;;;;;5.83;0.93;;;11.90;99.90;;;;;;4881892;29;20211;-74
2023/12/24 21:20:09;;;;;;;1.43;0.60;;;12.00;99.90;;;;;;4881243;29;20718;-74
2023/12/24 21:22:36;;;;;;;2.27;1.10;;;12.00;99.90;;;;;;4875565;29;20994;-74
2023/12/24 21:25:05;;;;;;;0.87;0.53;;;11.90;99.90;;;;;;4881110;29;20235;-74
2023/12/24 21:27:32;;;;;;;2.07;0.80;;;11.90;99.90;;;;;;4881441;29;20258;-74
2023/12/24 21:29:59;;;;;;;1.20;0.60;;;12.00;99.90;;;;;;4881506;29;20702;-74
2023/12/24 21:32:26;;;;;;;1.00;0.60;;;11.90;99.90;;;;;;4881381;29;20253;-74
2023/12/24 21:34:53;;;;;;;4.83;0.70;;;11.90;99.90;;;;;;4881310;29;20263;-74
2023/12/24 21:37:20;;;;;;;1.70;0.60;;;11.90;99.90;;;;;;4881371;29;20214;-74
2023/12/24 21:39:47;;;;;;;3.90;1.03;;;11.90;99.90;;;;;;4881307;29;20215;-74
2023/12/24 21:42:17;;;;;;;4.93;1.00;;;12.00;99.90;;;;;;4881483;29;20654;-74
2023/12/24 21:44:44;;;;;;;3.87;0.70;;;12.00;99.90;;;;;;4881458;29;20231;-74
2023/12/24 21:47:11;;;;;;;1.30;0.60;;;12.00;99.90;;;;;;4881096;29;20243;-74
2023/12/24 21:49:38;;;;;;;3.60;1.13;;;11.90;99.90;;;;;;4880671;29;20261;-74
2023/12/24 21:52:06;;;;;;;4.97;0.80;;;11.90;99.90;;;;;;4880876;29;20214;-74
2023/12/24 21:54:34;;;;;;;9.87;0.80;;;11.90;99.90;;;;;;4880717;29;20217;-75
2023/12/24 21:57:01;;;;;;;4.03;0.63;;;11.90;99.90;;;;;;4879395;29;20267;-74
2023/12/24 21:59:29;;;;;;;2.07;0.70;;;11.90;99.90;;;;;;4880440;29;20271;-74
2023/12/24 22:01:56;;;;;;;2.03;1.00;;;11.80;99.90;;;;;;4880917;29;20267;-74
2023/12/24 22:04:23;;;;;;;2.17;1.00;;;11.80;99.90;;;;;;4880181;29;20318;-74
2023/12/24 22:06:50;;;;;;;4.00;1.13;;;11.80;99.90;;;;;;4868886;29;20243;-74
2023/12/24 22:09:18;;;;;;;1.83;0.60;;;11.70;99.90;;;;;;4880886;29;20671;-74
2023/12/24 22:11:44;;;;;;;1.77;0.80;;;11.70;99.90;;;;;;4880639;29;20267;-74
2023/12/24 22:14:11;;;;;;;1.60;0.87;;;11.70;99.90;;;;;;4879812;29;20211;-74
2023/12/24 22:16:40;;;;;;;5.40;0.90;;;11.70;99.90;;;;;;4880304;29;20640;-75
2023/12/24 22:19:07;;;;;;;2.70;0.90;;;11.70;99.90;;;;;;4880070;29;20239;-74
2023/12/24 22:21:34;;;;;;;1.30;0.90;;;11.70;99.90;;;;;;4880127;29;20679;-75
2023/12/24 22:24:01;;;;;;;2.77;0.70;;;11.70;99.90;;;;;;4880334;29;20249;-74
2023/12/24 22:26:27;;;;;;;4.63;1.33;;;11.60;99.90;;;;;;4880345;29;20231;-74
2023/12/24 22:28:54;;;;;;;0.90;0.70;;;11.50;99.90;;;;;;4880396;29;20272;-74
2023/12/24 22:31:27;;;;;;;1.33;0.50;;;11.50;99.90;;;;;;4877125;29;20294;-75
2023/12/24 22:33:55;;;;;;;3.03;0.90;;;11.50;99.90;;;;;;4878152;29;20210;-75
2023/12/24 22:36:22;;;;;;;3.20;0.70;;;11.50;99.90;;;;;;4879962;29;20258;-73
2023/12/24 22:38:50;;;;;;;1.00;0.80;;;11.50;99.90;;;;;;4879742;29;20294;-73
2023/12/24 22:41:17;;;;;;;1.93;0.77;;;11.50;99.90;;;;;;4880092;29;20623;-76
2023/12/24 22:43:47;;;;;;;1.83;0.70;;;11.50;99.90;;;;;;4879550;29;20702;-74
2023/12/24 22:46:14;;;;;;;0.57;0.40;;;11.50;99.90;;;;;;4879645;29;20713;-74
2023/12/24 22:48:40;;;;;;;3.93;0.60;;;11.40;99.90;;;;;;4879210;29;20242;-74
2023/12/24 22:51:17;;;;;;;3.23;0.67;;;11.40;99.90;;;;;;4879602;29;20251;-73
2023/12/24 22:53:44;;;;;;;2.50;0.60;;;11.50;99.90;;;;;;4879942;29;20245;-74
2023/12/24 22:56:11;;;;;;;2.13;0.73;;;11.50;99.90;;;;;;4879688;29;20259;-74
